Detall de PIREP

Printer-friendly versionPDF version

[2013/10/09 09:12:00]
Flight IATA:CT2204
Pilot Number:042
Company ICAO:CAT
Aircraft Type:C750/F
PAX:4
Departing Airport: LFMP
Destination Airport: LFRB
Alternate Airport:LFPO
Online: VATSIM
Route:N0350F180 ORBIL G36 GAI G39 SECHE/N0450F320 UN863 TIRAV UN490 TERPO UM616 KORER/N0350F180 R66 LENSU
Flight Level:F320
No Slew and time accel
No pause
Crash detect
Detect pilot in Cockpit between each 30 and 45 minutes
09:12 Zero fuel Weight: 22920 Lbs, Fuel Weight: 12971 Lbs
09:12 VATSIM:LFMP 090900Z 31010KT 280V340 9999 FEW033 20/09 Q1023 TEMPO 32015G25KT
09:12 VATSIM:LFRB 090900Z 34004KT 9999 SCT010 SCT250 14/14 Q1025 NOSIG
09:12 VOICE CATALONIAN
09:28 Parking Brakes off
09:36 Take-off
09:36 Take off Weight: 35739 Lbs
09:36 Wind: 000º @ 002 Knots Heading: 328º
09:36 POS N42º 45´ 05´´ E002º 51´ 49´´
09:36 Gear Up: 162 Knots
09:36 Flaps:3 at 162 Knots
09:37 Flaps:2 at 167 Knots
09:37 Flaps:0 at 172 Knots
09:48 TOC
09:48 Fuel Weight: 12265 Lb
09:51 Wind:320º@067 Knots Heading: 315º Ground Speed: 423 Knots Altitude 31765 ft
10:06 Wind:321º@065 Knots Heading: 332º Ground Speed: 419 Knots Altitude 31702 ft
10:21 Wind:321º@060 Knots Heading: 321º Ground Speed: 423 Knots Altitude 31643 ft
10:27 TOD
10:27 Fuel Weight: 11193 Lb
10:36 Wind:311º@047 Knots Heading: 311º Ground Speed: 282 Knots Altitude 17995 ft
10:51 Wind:230º@008 Knots Heading: 295º Ground Speed: 232 Knots Altitude 4947 ft
10:51 Flaps:2 at 205 Knots
10:52 Flaps:3 at 191 Knots
10:54 Gear Down: 158 Knots
10:54 Flaps:4 at 157 Knots
10:56 TouchDown:Rate -731 ft/min Speed: 149 Knots
10:57 VATSIM:LFRB 091030Z 34009KT 310V010 9999 BKN013 SCT250 16/13 Q1025 NOSIG
10:57 Land
10:57 Wind:139º@009 Knots
10:57 Heading: 255º
10:57 Flight Duration: 01:21
10:57 Landing Weight: 33803 Lbs
10:57 POS N48º 26´ 49´´ W004º 25´ 16´´
11:02 Parking brakes on
11:02 Block to Block Duration: 01:34
11:02 Final Fuel: 10828 Lbls
11:02 Spent Fuel: 2142 Lbls
11:02 Flight Length: 477 NM
11:02 TOD Land Length: 136 NM

Exportar CSV

Powered by Drupal - Modified by Danger4k